RJFY weather

Kanoya Airport
Kagoshima Prefecture, Japan

Public forecast

Using degrees Celsius for public forecast. Weather courtesy of forecast.io.

Current aviation weather report (METAR) for Kanoya Airport

Report is more than 6 hours old.

Retrieved 2020/08/07 03:50 UTC (8 hours ago):

RJFY 070350Z 22009KT 190V250 9999 SCT030 BKN230 32/24 Q1011 RMK 3CU030 A2988

Closest aviation forecast (TAF) to Kanoya Airport

Closest forecast is Kagoshima Airport, 26.9 nm (49.9 km) NNW. Retrieved 2020/08/07 12:30 UTC (0 seconds ago):

TAF RJFK 071106Z 0712/0818 21005KT 9999 FEW020 BECMG 0716/0718 35004KT BECMG 0722/0800 20009KT BECMG 0812/0815 25005KT